Time;durP1;ratioP1;P1;durP2;ratioP2;P2;SDS_P1;SDS_P2;PMS_P1;PMS_P2;Temp;Humidity;BMP_temperature;BMP_pressure;BME280_temperature;BME280_humidity;BME280_pressure;Samples;Min_cycle;Max_cycle;Signal;HPM_P1;HPM_P2
2024/02/21 00:01:25;;;;;;;16.67;9.53;;;9.70;99.90;;;;;;5112051;28;20645;-72
2024/02/21 00:03:51;;;;;;;19.80;9.30;;;9.70;99.90;;;;;;5112224;28;20176;-72
2024/02/21 00:06:17;;;;;;;19.93;9.67;;;9.70;99.90;;;;;;5112222;28;20211;-72
2024/02/21 00:08:42;;;;;;;18.90;10.27;;;9.70;99.90;;;;;;5112618;28;20177;-72
2024/02/21 00:11:08;;;;;;;17.83;8.87;;;9.70;99.90;;;;;;5112417;28;20173;-72
2024/02/21 00:13:33;;;;;;;16.77;9.90;;;9.70;99.90;;;;;;5111742;28;20349;-72
2024/02/21 00:18:24;;;;;;;18.50;9.57;;;9.70;99.90;;;;;;5167066;22;20228;-69
2024/02/21 00:20:50;;;;;;;16.10;9.43;;;9.70;99.90;;;;;;5112226;28;20175;-70
2024/02/21 00:23:15;;;;;;;21.00;9.80;;;9.70;99.90;;;;;;5113681;27;20172;-70
2024/02/21 00:25:41;;;;;;;19.30;9.90;;;9.70;99.90;;;;;;5112096;28;20164;-70
2024/02/21 00:28:06;;;;;;;15.83;9.30;;;9.70;99.90;;;;;;5111837;28;20208;-70
2024/02/21 00:30:32;;;;;;;15.73;9.47;;;9.70;99.90;;;;;;5111915;28;20181;-70
2024/02/21 00:32:58;;;;;;;17.13;9.37;;;9.70;99.90;;;;;;5111789;28;20181;-70
2024/02/21 00:35:23;;;;;;;16.40;9.27;;;9.70;99.90;;;;;;5111795;28;20192;-71
2024/02/21 00:37:49;;;;;;;24.90;9.40;;;9.80;99.90;;;;;;5093767;28;20249;-69
2024/02/21 00:40:19;;;;;;;18.33;8.70;;;9.80;99.90;;;;;;5111607;28;20177;-70
2024/02/21 00:42:45;;;;;;;18.47;9.67;;;9.70;99.90;;;;;;5111765;28;20175;-70
2024/02/21 00:45:11;;;;;;;16.83;9.03;;;9.70;99.90;;;;;;5111720;28;20267;-70
2024/02/21 00:47:37;;;;;;;16.13;9.57;;;9.70;99.90;;;;;;5111437;28;20790;-70
2024/02/21 00:50:02;;;;;;;16.57;8.73;;;9.60;99.90;;;;;;5093483;28;20219;-70
2024/02/21 00:52:28;;;;;;;15.00;8.80;;;9.60;99.90;;;;;;5111529;28;20217;-70
2024/02/21 00:54:54;;;;;;;16.97;8.43;;;9.60;99.90;;;;;;5113077;28;20193;-70
2024/02/21 00:57:19;;;;;;;15.83;8.40;;;9.60;99.90;;;;;;5112789;28;20641;-71
2024/02/21 00:59:45;;;;;;;18.07;8.60;;;9.60;99.90;;;;;;5111386;28;20302;-70
2024/02/21 01:02:10;;;;;;;20.50;9.23;;;9.60;99.90;;;;;;5111053;28;20664;-71
2024/02/21 01:04:36;;;;;;;17.37;9.90;;;9.60;99.90;;;;;;5111690;28;20188;-71
2024/02/21 01:07:02;;;;;;;23.97;8.90;;;9.60;99.90;;;;;;5112021;28;20207;-71
2024/02/21 01:09:27;;;;;;;17.77;9.53;;;9.60;99.90;;;;;;5116117;28;20172;-70
2024/02/21 01:11:53;;;;;;;18.00;9.20;;;9.60;99.90;;;;;;5116360;28;20570;-71
2024/02/21 01:14:19;;;;;;;15.80;8.67;;;9.60;99.90;;;;;;5097538;28;20175;-71
2024/02/21 01:16:44;;;;;;;16.80;9.13;;;9.60;99.90;;;;;;5115397;28;20223;-70
2024/02/21 01:19:10;;;;;;;15.43;9.53;;;9.60;99.90;;;;;;5115664;28;20161;-70
2024/02/21 01:21:35;;;;;;;16.40;9.03;;;9.60;99.90;;;;;;5115603;28;20242;-70
2024/02/21 01:24:01;;;;;;;15.53;8.73;;;9.60;99.90;;;;;;5115470;28;20546;-70
2024/02/21 01:26:26;;;;;;;19.07;9.50;;;9.60;99.90;;;;;;5115170;28;20242;-70
2024/02/21 01:28:52;;;;;;;17.90;9.57;;;9.60;99.90;;;;;;5097218;28;20230;-70
2024/02/21 01:31:18;;;;;;;13.77;8.97;;;9.60;99.90;;;;;;5114833;28;20192;-70
2024/02/21 01:33:43;;;;;;;15.70;8.93;;;9.60;99.90;;;;;;5114941;28;20296;-70
2024/02/21 01:36:09;;;;;;;15.40;9.40;;;9.60;99.90;;;;;;5115054;28;20203;-70
2024/02/21 01:38:35;;;;;;;17.43;9.87;;;9.60;99.90;;;;;;5115093;28;20280;-70
2024/02/21 01:41:00;;;;;;;20.33;9.20;;;9.60;99.90;;;;;;5115073;28;20259;-70
2024/02/21 01:43:26;;;;;;;16.93;9.00;;;9.60;99.90;;;;;;5114558;28;20188;-70
2024/02/21 01:45:56;;;;;;;19.77;9.03;;;9.60;99.90;;;;;;5115253;28;20173;-70
2024/02/21 01:48:25;;;;;;;15.73;9.63;;;9.60;99.90;;;;;;5114792;28;20192;-70
2024/02/21 01:50:51;;;;;;;16.37;9.77;;;9.60;99.90;;;;;;5115186;28;20173;-71
2024/02/21 01:53:21;;;;;;;18.67;8.73;;;9.60;99.90;;;;;;5114407;28;20206;-70
2024/02/21 01:55:47;;;;;;;15.47;9.50;;;9.50;99.90;;;;;;5115190;28;20215;-71
2024/02/21 01:58:17;;;;;;;15.97;9.00;;;9.60;99.90;;;;;;5115031;28;20277;-71
2024/02/21 02:00:45;;;;;;;14.67;9.20;;;9.60;99.90;;;;;;5098610;28;20543;-71
2024/02/21 02:03:17;;;;;;;15.37;8.67;;;9.60;99.90;;;;;;5114091;28;20165;-71
2024/02/21 02:05:49;;;;;;;15.17;8.77;;;9.60;99.90;;;;;;5115107;28;20218;-71
2024/02/21 02:08:16;;;;;;;15.70;8.90;;;9.60;99.90;;;;;;5114174;28;20212;-70
2024/02/21 02:10:42;;;;;;;17.07;9.17;;;9.60;99.90;;;;;;5114853;28;20204;-70
2024/02/21 02:13:08;;;;;;;13.40;8.73;;;9.60;99.90;;;;;;5114424;28;20176;-70
2024/02/21 02:15:47;;;;;;;15.80;8.90;;;9.60;99.90;;;;;;5114463;28;20204;-70
2024/02/21 02:18:14;;;;;;;15.57;8.40;;;9.60;99.90;;;;;;5114265;28;20208;-70
2024/02/21 02:20:40;;;;;;;21.73;9.47;;;9.60;99.90;;;;;;5113579;28;20173;-71
2024/02/21 02:23:25;;;;;;;17.37;9.23;;;9.60;99.90;;;;;;5114004;28;20866;-70
2024/02/21 02:25:54;;;;;;;18.97;9.57;;;9.60;99.90;;;;;;5114216;28;20176;-70
2024/02/21 02:28:20;;;;;;;18.73;8.90;;;9.60;99.90;;;;;;5113990;28;20209;-71
2024/02/21 02:30:46;;;;;;;10.53;8.83;;;9.60;99.90;;;;;;5114237;28;20173;-70
2024/02/21 02:33:12;;;;;;;20.53;9.67;;;9.60;99.90;;;;;;5113767;28;20237;-71
2024/02/21 02:35:38;;;;;;;14.27;8.13;;;9.60;99.90;;;;;;5113991;28;20235;-71
2024/02/21 02:38:04;;;;;;;12.50;8.60;;;9.60;99.90;;;;;;5113856;28;20280;-71
2024/02/21 02:40:30;;;;;;;17.33;9.67;;;9.60;99.90;;;;;;5113951;28;20172;-71
2024/02/21 02:42:55;;;;;;;13.13;8.33;;;9.60;99.90;;;;;;5113563;28;20176;-71
2024/02/21 02:45:23;;;;;;;15.00;9.67;;;9.60;99.90;;;;;;5113659;28;20177;-73
2024/02/21 02:47:49;;;;;;;13.50;8.27;;;9.50;99.90;;;;;;5113894;28;20199;-71
2024/02/21 02:50:15;;;;;;;18.07;9.70;;;9.50;99.90;;;;;;5113506;28;20173;-70
2024/02/21 02:52:40;;;;;;;18.03;9.47;;;9.50;99.90;;;;;;5113624;28;20175;-72
2024/02/21 02:55:06;;;;;;;19.23;8.97;;;9.50;99.90;;;;;;5113932;28;20211;-70
2024/02/21 02:57:33;;;;;;;16.63;9.27;;;9.50;99.90;;;;;;5113496;28;20196;-70
2024/02/21 02:59:58;;;;;;;18.97;8.57;;;9.50;99.90;;;;;;5113062;28;20164;-70
2024/02/21 03:02:24;;;;;;;12.47;8.40;;;9.50;99.90;;;;;;5113359;28;20255;-70
2024/02/21 03:04:50;;;;;;;20.37;9.17;;;9.50;99.90;;;;;;5113809;28;20175;-70
2024/02/21 03:07:16;;;;;;;18.43;10.13;;;9.50;99.90;;;;;;5113062;28;20272;-70
2024/02/21 03:09:45;;;;;;;17.37;9.43;;;9.50;99.90;;;;;;5113187;28;20180;-71
2024/02/21 03:12:11;;;;;;;18.20;10.33;;;9.50;99.90;;;;;;5113529;28;20548;-71
2024/02/21 03:14:36;;;;;;;18.60;9.07;;;9.50;99.90;;;;;;5113583;28;20176;-70
2024/02/21 03:17:03;;;;;;;22.77;9.90;;;9.60;99.90;;;;;;5112982;28;20216;-70
2024/02/21 03:19:28;;;;;;;15.30;9.07;;;9.50;99.90;;;;;;5112513;28;20173;-70
2024/02/21 03:21:55;;;;;;;12.53;8.37;;;9.60;99.90;;;;;;5112620;28;20191;-70
2024/02/21 03:24:21;;;;;;;15.63;8.50;;;9.60;99.90;;;;;;5112032;28;20173;-70
2024/02/21 03:26:50;;;;;;;19.87;10.63;;;9.50;99.90;;;;;;5112902;28;20232;-70
2024/02/21 03:29:16;;;;;;;16.97;9.90;;;9.50;99.90;;;;;;5111739;28;20172;-70
2024/02/21 03:31:42;;;;;;;28.70;14.43;;;9.50;99.90;;;;;;5111794;28;20268;-70
2024/02/21 03:34:10;;;;;;;17.33;8.87;;;9.50;99.90;;;;;;5112200;28;20189;-70
2024/02/21 03:36:35;;;;;;;16.83;8.20;;;9.50;99.90;;;;;;5111990;28;20261;-69
2024/02/21 03:39:01;;;;;;;15.40;8.43;;;9.50;99.90;;;;;;5112556;28;20177;-70
2024/02/21 03:41:27;;;;;;;16.23;8.00;;;9.50;99.90;;;;;;5111879;28;20192;-70
2024/02/21 03:43:52;;;;;;;14.63;7.57;;;9.50;99.90;;;;;;5112278;28;20203;-70
2024/02/21 03:46:18;;;;;;;12.63;7.43;;;9.50;99.90;;;;;;5112240;28;20184;-71
2024/02/21 03:48:43;;;;;;;13.10;7.30;;;9.50;99.90;;;;;;5112206;28;20181;-70
2024/02/21 03:51:09;;;;;;;14.30;8.60;;;9.60;99.90;;;;;;5112216;28;20537;-70
2024/02/21 03:53:34;;;;;;;18.70;7.83;;;9.60;99.90;;;;;;5093588;28;20189;-70
2024/02/21 03:56:04;;;;;;;12.00;7.87;;;9.60;99.90;;;;;;5111847;28;20242;-70
2024/02/21 03:58:30;;;;;;;12.73;7.00;;;9.60;99.90;;;;;;5112223;28;20474;-70
2024/02/21 04:00:56;;;;;;;13.57;7.47;;;9.50;99.90;;;;;;5112108;28;20537;-70
2024/02/21 04:03:22;;;;;;;12.27;7.63;;;9.50;99.90;;;;;;5111704;28;20184;-69
2024/02/21 04:05:48;;;;;;;16.40;7.90;;;9.50;99.90;;;;;;5112299;28;20169;-70
2024/02/21 04:08:14;;;;;;;12.83;7.10;;;9.50;99.90;;;;;;5111649;28;20250;-70
2024/02/21 04:10:39;;;;;;;13.23;7.90;;;9.50;99.90;;;;;;5111743;28;20180;-70
2024/02/21 04:13:06;;;;;;;9.97;7.00;;;9.50;99.90;;;;;;5093176;28;20241;-70
2024/02/21 04:15:32;;;;;;;16.10;7.70;;;9.50;99.90;;;;;;5111607;28;20196;-70
2024/02/21 04:17:58;;;;;;;16.60;8.57;;;9.50;99.90;;;;;;5073037;28;1106081;-70
2024/02/21 04:20:23;;;;;;;9.30;7.07;;;9.50;99.90;;;;;;5112412;28;20628;-70
2024/02/21 04:22:49;;;;;;;11.53;7.17;;;9.60;99.90;;;;;;5111969;28;20259;-70
2024/02/21 04:25:15;;;;;;;19.80;8.23;;;9.60;99.90;;;;;;5093667;28;20187;-70
2024/02/21 04:27:40;;;;;;;14.33;7.53;;;9.60;99.90;;;;;;5112214;28;20230;-70
2024/02/21 04:30:07;;;;;;;19.63;8.23;;;9.50;99.90;;;;;;5112383;28;20220;-70
2024/02/21 04:32:33;;;;;;;17.40;8.23;;;9.60;99.90;;;;;;5111745;28;20181;-70
2024/02/21 04:34:58;;;;;;;13.03;8.43;;;9.60;99.90;;;;;;5112387;28;20209;-70
2024/02/21 04:37:24;;;;;;;14.63;7.77;;;9.60;99.90;;;;;;5111792;28;20193;-70
2024/02/21 04:39:50;;;;;;;10.30;7.43;;;9.60;99.90;;;;;;5112382;28;20177;-70
2024/02/21 04:42:16;;;;;;;14.30;8.63;;;9.60;99.90;;;;;;5111118;28;20621;-70
2024/02/21 04:44:41;;;;;;;10.53;7.40;;;9.60;99.90;;;;;;5111895;28;20252;-69
2024/02/21 04:47:07;;;;;;;8.00;7.07;;;9.50;99.90;;;;;;5111814;28;20284;-70
2024/02/21 04:49:33;;;;;;;15.03;8.27;;;9.60;99.90;;;;;;5111801;28;20188;-70
2024/02/21 04:51:59;;;;;;;11.53;7.03;;;9.50;99.90;;;;;;5111928;28;20181;-70
2024/02/21 04:54:24;;;;;;;10.60;7.33;;;9.60;99.90;;;;;;5112065;28;20230;-70
2024/02/21 04:56:50;;;;;;;12.60;7.00;;;9.60;99.90;;;;;;5111968;28;20217;-70
2024/02/21 04:59:16;;;;;;;12.63;7.10;;;9.60;99.90;;;;;;5111231;28;20177;-70
2024/02/21 05:01:42;;;;;;;15.63;6.87;;;9.60;99.90;;;;;;5111928;28;20188;-70
2024/02/21 05:04:07;;;;;;;11.87;7.13;;;9.50;99.90;;;;;;5111750;28;20353;-70
2024/02/21 05:06:38;;;;;;;10.07;6.73;;;9.60;99.90;;;;;;5111792;28;20665;-70
2024/02/21 05:09:04;;;;;;;16.03;7.47;;;9.50;99.90;;;;;;5111574;28;20519;-70
2024/02/21 05:11:30;;;;;;;13.30;6.73;;;9.50;99.90;;;;;;5111351;28;20214;-70
2024/02/21 05:13:56;;;;;;;13.80;7.33;;;9.60;99.90;;;;;;5111260;28;20668;-70
2024/02/21 05:16:21;;;;;;;13.27;7.00;;;9.60;99.90;;;;;;5111217;28;20212;-69
2024/02/21 05:18:47;;;;;;;14.00;6.57;;;9.60;99.90;;;;;;5111476;28;20238;-70
2024/02/21 05:21:13;;;;;;;17.00;7.00;;;9.60;99.90;;;;;;5115613;28;20194;-70
2024/02/21 05:23:39;;;;;;;9.73;6.60;;;9.60;99.90;;;;;;5111806;28;20544;-70
2024/02/21 05:26:05;;;;;;;15.13;7.70;;;9.60;99.90;;;;;;5111408;28;20181;-70
2024/02/21 05:28:31;;;;;;;12.97;7.03;;;9.60;99.90;;;;;;5111159;28;20181;-70
2024/02/21 05:30:57;;;;;;;9.93;6.80;;;9.60;99.90;;;;;;5111423;28;20191;-70
2024/02/21 05:33:22;;;;;;;9.43;6.57;;;9.60;99.90;;;;;;5110867;28;20557;-70
2024/02/21 05:35:48;;;;;;;12.30;7.73;;;9.60;99.90;;;;;;5111134;28;20204;-70
2024/02/21 05:38:14;;;;;;;13.57;6.80;;;9.60;99.90;;;;;;5110891;28;20189;-70
2024/02/21 05:40:40;;;;;;;11.57;7.53;;;9.60;99.90;;;;;;5111191;28;20169;-70
2024/02/21 05:43:07;;;;;;;12.57;7.03;;;9.60;99.90;;;;;;5094350;28;20738;-70
2024/02/21 05:45:33;;;;;;;15.93;7.07;;;9.60;99.90;;;;;;5110536;28;20200;-70
2024/02/21 05:47:59;;;;;;;11.30;7.10;;;9.60;99.90;;;;;;5110934;28;20583;-70
2024/02/21 05:50:26;;;;;;;10.63;7.70;;;9.60;99.90;;;;;;5110874;28;20191;-70
2024/02/21 05:52:58;;;;;;;15.23;6.80;;;9.60;99.90;;;;;;5110563;28;20648;-70
2024/02/21 05:55:24;;;;;;;10.90;7.50;;;9.60;99.90;;;;;;5114117;28;20291;-70
2024/02/21 05:57:53;;;;;;;19.03;7.00;;;9.60;99.90;;;;;;5114713;28;20284;-70
2024/02/21 06:00:18;;;;;;;19.20;7.60;;;9.60;99.90;;;;;;5113890;28;20588;-70
2024/02/21 06:02:44;;;;;;;10.37;6.70;;;9.60;99.90;;;;;;5114049;28;20169;-70
2024/02/21 06:05:09;;;;;;;13.10;6.67;;;9.50;99.90;;;;;;5114856;28;20194;-70
2024/02/21 06:07:35;;;;;;;11.20;7.00;;;9.50;99.90;;;;;;5096104;28;20582;-70
2024/02/21 06:10:04;;;;;;;13.90;6.93;;;9.50;99.90;;;;;;5114829;28;20173;-70
2024/02/21 06:12:30;;;;;;;9.80;6.63;;;9.40;99.90;;;;;;5114068;28;20219;-69
2024/02/21 06:14:55;;;;;;;13.30;7.07;;;9.40;99.90;;;;;;5114126;28;20212;-70
2024/02/21 06:17:21;;;;;;;11.30;6.77;;;9.40;99.90;;;;;;5138832;22;20225;-71
2024/02/21 06:19:46;;;;;;;7.53;5.77;;;9.40;99.90;;;;;;5128676;27;20178;-71
2024/02/21 06:22:12;;;;;;;6.33;5.43;;;9.40;99.90;;;;;;5137030;27;20568;-71
2024/02/21 06:24:38;;;;;;;9.43;6.50;;;9.40;99.90;;;;;;5134719;27;20172;-71
2024/02/21 06:27:05;;;;;;;7.20;5.77;;;9.40;99.90;;;;;;5114660;28;20196;-72
2024/02/21 06:29:32;;;;;;;7.73;5.87;;;9.40;99.90;;;;;;5113692;28;20547;-72
2024/02/21 06:31:57;;;;;;;9.20;5.50;;;9.40;99.90;;;;;;5114166;28;20625;-71
2024/02/21 06:34:24;;;;;;;6.37;5.60;;;9.40;99.90;;;;;;5113688;28;20179;-71
2024/02/21 06:36:50;;;;;;;6.63;6.07;;;9.40;99.90;;;;;;5113979;28;20205;-71
2024/02/21 06:39:15;;;;;;;10.97;6.10;;;9.40;99.90;;;;;;5114048;28;20259;-71
2024/02/21 06:41:41;;;;;;;8.83;6.03;;;9.40;99.90;;;;;;5113533;28;20204;-71
2024/02/21 06:44:07;;;;;;;7.17;6.23;;;9.40;99.90;;;;;;5113725;27;20253;-72
2024/02/21 06:46:33;;;;;;;8.77;5.83;;;9.40;99.90;;;;;;5112578;28;20181;-71
2024/02/21 06:49:00;;;;;;;8.10;6.03;;;9.50;99.90;;;;;;5114395;28;20615;-71
2024/02/21 06:51:26;;;;;;;9.30;5.20;;;9.50;99.90;;;;;;5113762;28;20180;-71
2024/02/21 06:53:52;;;;;;;5.63;4.93;;;9.50;99.90;;;;;;5113843;28;20222;-71
2024/02/21 06:56:18;;;;;;;7.33;5.87;;;9.50;99.90;;;;;;5113554;28;20291;-71
2024/02/21 06:58:43;;;;;;;7.67;5.20;;;9.50;99.90;;;;;;5113508;28;20223;-70
2024/02/21 07:01:10;;;;;;;10.83;5.67;;;9.50;99.90;;;;;;5113308;28;20172;-72
2024/02/21 07:03:35;;;;;;;8.97;5.20;;;9.60;99.90;;;;;;5113317;28;20173;-71
2024/02/21 07:06:01;;;;;;;11.53;6.10;;;9.60;99.90;;;;;;5113044;28;20169;-72
2024/02/21 07:08:27;;;;;;;7.47;5.50;;;9.50;99.90;;;;;;5112032;28;20204;-71
2024/02/21 07:10:52;;;;;;;7.47;6.07;;;9.60;99.90;;;;;;5113588;28;20176;-72
2024/02/21 07:13:18;;;;;;;7.47;6.10;;;9.60;99.90;;;;;;5112957;28;20217;-72
2024/02/21 07:15:43;;;;;;;9.57;5.70;;;9.60;99.90;;;;;;5113398;28;20244;-72
2024/02/21 07:18:09;;;;;;;6.53;5.77;;;9.60;99.90;;;;;;5113176;28;20192;-72
2024/02/21 07:20:37;;;;;;;9.93;5.83;;;9.60;99.90;;;;;;5113269;28;20175;-72
2024/02/21 07:23:03;;;;;;;10.20;6.73;;;9.60;99.90;;;;;;5113122;28;20213;-72
2024/02/21 07:25:29;;;;;;;7.73;6.67;;;9.60;99.90;;;;;;5112629;28;20180;-72
2024/02/21 07:27:54;;;;;;;13.80;6.10;;;9.60;99.90;;;;;;5113223;28;20303;-72
2024/02/21 07:30:20;;;;;;;10.13;6.03;;;9.50;99.90;;;;;;5112897;28;20188;-72
2024/02/21 07:32:48;;;;;;;10.90;6.40;;;9.50;99.90;;;;;;5112803;28;20251;-72
2024/02/21 07:35:14;;;;;;;11.37;6.93;;;9.50;99.90;;;;;;5113062;28;20557;-72
2024/02/21 07:37:39;;;;;;;9.93;7.13;;;9.50;99.90;;;;;;5112431;28;20379;-73
2024/02/21 07:40:06;;;;;;;16.53;6.63;;;9.50;99.90;;;;;;5112670;28;20173;-72
2024/02/21 07:42:32;;;;;;;15.73;6.43;;;9.50;99.90;;;;;;5112363;28;20168;-71
2024/02/21 07:44:58;;;;;;;10.57;6.93;;;9.50;99.90;;;;;;5112754;28;20181;-72
2024/02/21 07:47:24;;;;;;;9.77;6.40;;;9.60;99.90;;;;;;5112557;28;20271;-72
2024/02/21 07:49:50;;;;;;;14.23;7.30;;;9.60;99.90;;;;;;5112976;28;20161;-73
2024/02/21 07:52:15;;;;;;;9.93;6.13;;;9.60;99.90;;;;;;5112415;28;20172;-73
2024/02/21 07:54:41;;;;;;;11.93;7.40;;;9.70;99.90;;;;;;5113407;28;20172;-72
2024/02/21 07:57:09;;;;;;;17.07;7.13;;;9.70;99.90;;;;;;5114100;28;20679;-72
2024/02/21 07:59:35;;;;;;;9.43;6.80;;;9.70;99.90;;;;;;5111955;28;20222;-72
2024/02/21 08:02:01;;;;;;;9.33;6.97;;;9.70;99.90;;;;;;5112758;28;20600;-71
2024/02/21 08:04:26;;;;;;;11.43;6.53;;;9.70;99.90;;;;;;5111922;28;20211;-72
2024/02/21 08:06:53;;;;;;;10.23;6.53;;;9.70;99.90;;;;;;5093999;28;20547;-72
2024/02/21 08:09:19;;;;;;;12.20;6.87;;;9.60;99.90;;;;;;5112038;28;20179;-71
2024/02/21 08:11:45;;;;;;;11.07;7.40;;;9.60;99.90;;;;;;5112179;28;20184;-72
2024/02/21 08:14:10;;;;;;;9.20;6.00;;;9.70;99.90;;;;;;5112252;28;20279;-74
2024/02/21 08:16:36;;;;;;;10.30;6.50;;;9.60;99.90;;;;;;5112147;28;20196;-74
2024/02/21 08:19:04;;;;;;;10.57;7.07;;;9.60;99.90;;;;;;5112266;28;20184;-73
2024/02/21 08:21:29;;;;;;;11.03;6.23;;;9.60;99.90;;;;;;5112044;28;20169;-73
2024/02/21 08:23:55;;;;;;;6.80;6.10;;;9.60;99.90;;;;;;5093951;28;20527;-73
2024/02/21 08:26:20;;;;;;;9.87;6.20;;;9.60;99.90;;;;;;5112225;28;20660;-73
2024/02/21 08:28:46;;;;;;;9.97;6.23;;;9.60;99.90;;;;;;5112073;28;20661;-73
2024/02/21 08:31:18;;;;;;;12.07;6.63;;;9.60;99.90;;;;;;5111761;28;20177;-74
2024/02/21 08:33:44;;;;;;;15.93;7.00;;;9.60;99.90;;;;;;5111635;28;20176;-74
2024/02/21 08:36:19;;;;;;;10.23;5.90;;;9.70;99.90;;;;;;5112005;28;20227;-72
2024/02/21 08:38:46;;;;;;;9.50;6.50;;;9.60;99.90;;;;;;5112726;28;20559;-72
2024/02/21 08:41:12;;;;;;;7.03;5.60;;;9.70;99.90;;;;;;5112037;28;20297;-72
2024/02/21 08:43:37;;;;;;;9.13;5.93;;;9.70;99.90;;;;;;5111631;28;20169;-70
2024/02/21 08:46:03;;;;;;;10.83;6.13;;;9.70;99.90;;;;;;5111277;28;20288;-71
2024/02/21 08:48:29;;;;;;;9.30;6.23;;;9.80;99.90;;;;;;5111785;28;20221;-71
2024/02/21 08:50:55;;;;;;;13.53;7.10;;;9.80;99.90;;;;;;5111908;28;20542;-72
2024/02/21 08:53:20;;;;;;;9.57;6.33;;;9.80;99.90;;;;;;5111350;28;20181;-72
2024/02/21 08:55:46;;;;;;;9.77;6.67;;;9.70;99.90;;;;;;5111645;28;20642;-71
2024/02/21 08:58:12;;;;;;;10.07;6.57;;;9.80;99.90;;;;;;5111383;28;20291;-72
2024/02/21 09:00:37;;;;;;;9.63;6.03;;;9.90;99.90;;;;;;5110380;28;20443;-72
2024/02/21 09:03:03;;;;;;;11.87;5.90;;;10.10;99.90;;;;;;5111630;28;20180;-72
2024/02/21 09:05:29;;;;;;;10.17;6.10;;;10.30;99.90;;;;;;5111580;28;20177;-71
2024/02/21 09:07:54;;;;;;;8.33;5.90;;;10.60;99.90;;;;;;5111699;28;20264;-71
2024/02/21 09:10:21;;;;;;;8.70;6.23;;;10.90;99.90;;;;;;5111614;28;20176;-72
2024/02/21 09:12:47;;;;;;;9.33;5.80;;;11.10;99.90;;;;;;5111405;28;20177;-72
2024/02/21 09:15:13;;;;;;;10.27;6.13;;;11.30;99.90;;;;;;5109650;28;20205;-73
2024/02/21 09:17:39;;;;;;;8.20;5.53;;;11.20;99.90;;;;;;5111249;28;20216;-72
2024/02/21 09:20:06;;;;;;;7.40;6.03;;;11.30;99.90;;;;;;5111490;28;20177;-71
2024/02/21 09:22:34;;;;;;;9.90;5.07;;;11.30;99.90;;;;;;5110992;28;20173;-72
2024/02/21 09:25:00;;;;;;;5.93;5.13;;;11.20;99.90;;;;;;5093303;28;20173;-72
2024/02/21 09:27:26;;;;;;;10.20;5.23;;;11.30;99.90;;;;;;5110864;28;20295;-72
2024/02/21 09:29:51;;;;;;;6.53;5.40;;;11.50;99.90;;;;;;5114043;28;20604;-72
2024/02/21 09:32:19;;;;;;;8.13;5.50;;;11.60;99.90;;;;;;5096686;28;20181;-72
2024/02/21 09:34:45;;;;;;;10.23;5.77;;;11.70;99.90;;;;;;5097076;28;20401;-72
2024/02/21 09:37:11;;;;;;;6.60;4.80;;;11.80;99.90;;;;;;5115239;28;20208;-71
2024/02/21 09:39:36;;;;;;;10.10;5.00;;;11.90;99.90;;;;;;5114765;28;20423;-72
2024/02/21 09:42:11;;;;;;;10.50;5.33;;;11.90;99.90;;;;;;5115362;28;20226;-71
2024/02/21 09:44:43;;;;;;;9.50;4.43;;;12.00;99.90;;;;;;5114809;28;20210;-71
2024/02/21 09:47:56;;;;;;;5.33;4.83;;;12.00;99.90;;;;;;5115759;28;20483;-71
2024/02/21 09:50:22;;;;;;;5.63;4.60;;;12.00;99.90;;;;;;5011388;28;20215;-73
2024/02/21 09:52:49;;;;;;;7.03;4.37;;;12.10;99.90;;;;;;5102661;28;20625;-72
2024/02/21 09:55:16;;;;;;;6.00;4.27;;;12.20;99.90;;;;;;5114542;28;20203;-72
2024/02/21 09:57:43;;;;;;;7.67;4.53;;;12.40;99.90;;;;;;5096537;28;20193;-72
2024/02/21 10:00:09;;;;;;;6.73;4.63;;;12.40;99.90;;;;;;5114902;28;20172;-71
2024/02/21 10:02:35;;;;;;;9.53;4.90;;;12.50;99.90;;;;;;5114522;28;20652;-71
2024/02/21 10:05:02;;;;;;;4.40;3.80;;;12.50;99.90;;;;;;5096225;28;20188;-73
2024/02/21 10:07:31;;;;;;;8.47;5.03;;;12.60;99.90;;;;;;5114510;28;21020;-72
2024/02/21 10:10:04;;;;;;;7.03;4.60;;;12.50;99.90;;;;;;5114790;28;20169;-72
2024/02/21 10:12:29;;;;;;;9.10;4.30;;;12.40;99.90;;;;;;5114246;28;20181;-72
2024/02/21 10:15:06;;;;;;;7.23;4.30;;;12.50;99.90;;;;;;5114771;28;20661;-72
2024/02/21 10:17:34;;;;;;;9.20;4.70;;;12.60;99.90;;;;;;5114074;28;20233;-71
2024/02/21 10:20:10;;;;;;;10.13;4.23;;;12.60;99.90;;;;;;5114478;28;20185;-71
2024/02/21 10:22:39;;;;;;;6.13;4.50;;;12.70;99.90;;;;;;5113789;28;20671;-72
2024/02/21 10:25:14;;;;;;;7.60;4.03;;;12.90;99.90;;;;;;5114981;28;20217;-72
2024/02/21 10:27:41;;;;;;;10.67;4.57;;;13.00;99.90;;;;;;5113625;28;20698;-72
2024/02/21 10:30:12;;;;;;;9.73;4.67;;;13.00;99.90;;;;;;5114456;28;20200;-73
2024/02/21 10:32:54;;;;;;;7.80;4.50;;;12.80;99.90;;;;;;5114344;28;20169;-71
2024/02/21 10:35:30;;;;;;;11.57;4.33;;;12.80;99.90;;;;;;5113934;28;20215;-72
2024/02/21 10:37:56;;;;;;;7.00;4.60;;;12.70;99.90;;;;;;5097234;28;20212;-71
2024/02/21 10:40:36;;;;;;;10.77;4.80;;;12.70;99.90;;;;;;5091380;28;20227;-72
2024/02/21 10:43:03;;;;;;;6.07;4.40;;;12.70;99.90;;;;;;5093013;28;20252;-72
2024/02/21 10:45:31;;;;;;;10.87;4.30;;;12.70;99.90;;;;;;5093731;28;20177;-72
2024/02/21 10:48:11;;;;;;;6.77;4.30;;;12.60;99.90;;;;;;5093828;28;20650;-72
2024/02/21 10:50:55;;;;;;;13.17;5.17;;;12.60;99.90;;;;;;5093436;28;20196;-72
2024/02/21 10:53:41;;;;;;;7.73;4.80;;;12.50;99.90;;;;;;5093245;28;20177;-72
2024/02/21 10:56:21;;;;;;;9.97;5.50;;;12.50;99.90;;;;;;5093868;28;20710;-72
2024/02/21 10:58:48;;;;;;;13.23;5.97;;;12.50;99.90;;;;;;5093589;28;20233;-72
2024/02/21 11:01:14;;;;;;;7.20;4.87;;;12.60;99.90;;;;;;5093959;28;20640;-72
2024/02/21 11:03:42;;;;;;;8.83;4.87;;;12.70;99.90;;;;;;5093485;28;20165;-71
2024/02/21 11:06:10;;;;;;;10.50;4.80;;;12.80;99.90;;;;;;5093483;28;20261;-72
2024/02/21 11:08:36;;;;;;;5.10;4.60;;;12.80;99.90;;;;;;5093784;28;20225;-72
2024/02/21 11:11:01;;;;;;;8.50;4.63;;;12.90;99.90;;;;;;5094396;28;20649;-72
2024/02/21 11:13:40;;;;;;;9.53;4.67;;;13.00;99.90;;;;;;5093819;28;20178;-72
2024/02/21 11:16:09;;;;;;;7.60;4.30;;;13.10;99.90;;;;;;5093730;28;20205;-74
2024/02/21 11:18:35;;;;;;;9.73;4.77;;;13.10;99.90;;;;;;5093658;28;20208;-72
2024/02/21 11:21:01;;;;;;;15.07;4.70;;;13.10;99.90;;;;;;5094121;28;20168;-71
2024/02/21 11:23:27;;;;;;;10.73;4.07;;;13.10;99.90;;;;;;5094506;28;20170;-71
2024/02/21 11:26:03;;;;;;;13.70;4.77;;;13.10;99.90;;;;;;5094264;28;20290;-72
2024/02/21 11:28:29;;;;;;;7.43;4.10;;;13.00;99.90;;;;;;5094827;28;20669;-73
2024/02/21 11:31:13;;;;;;;6.77;4.17;;;12.80;99.90;;;;;;5095629;28;20184;-74
2024/02/21 11:33:43;;;;;;;5.87;4.37;;;12.70;99.90;;;;;;5095081;28;20176;-72
2024/02/21 11:36:09;;;;;;;13.27;4.30;;;12.60;99.90;;;;;;5094516;28;20247;-74
2024/02/21 11:38:35;;;;;;;5.03;4.47;;;12.60;99.90;;;;;;5093407;28;20273;-72
2024/02/21 11:41:01;;;;;;;6.23;4.73;;;12.50;99.90;;;;;;5094932;28;20179;-72
2024/02/21 11:43:27;;;;;;;13.43;4.50;;;12.50;99.90;;;;;;5093277;28;20226;-71
2024/02/21 11:46:03;;;;;;;6.40;4.17;;;12.50;99.90;;;;;;5093374;28;20181;-73
2024/02/21 11:48:29;;;;;;;4.93;4.00;;;12.50;99.90;;;;;;5093195;28;20596;-72
2024/02/21 11:50:56;;;;;;;9.33;4.20;;;12.40;99.90;;;;;;5095306;28;20185;-71
2024/02/21 11:53:22;;;;;;;6.17;4.00;;;12.50;99.90;;;;;;5112188;28;20192;-73
2024/02/21 11:55:47;;;;;;;7.37;4.13;;;12.60;99.90;;;;;;5114022;28;20544;-72
2024/02/21 11:58:13;;;;;;;4.40;3.97;;;12.60;99.90;;;;;;5115516;28;20204;-73
2024/02/21 12:00:39;;;;;;;4.57;3.60;;;12.70;99.90;;;;;;5113304;28;20187;-71
2024/02/21 12:03:05;;;;;;;6.37;4.37;;;12.80;99.90;;;;;;5113271;28;20260;-73
2024/02/21 12:05:31;;;;;;;6.20;3.80;;;12.80;99.90;;;;;;5095826;28;20219;-74
2024/02/21 12:08:00;;;;;;;8.20;3.60;;;12.80;99.90;;;;;;5115582;28;20193;-73
2024/02/21 12:10:27;;;;;;;5.13;3.83;;;12.80;99.90;;;;;;5113670;28;20290;-73
2024/02/21 12:12:58;;;;;;;6.30;4.33;;;12.60;99.90;;;;;;5116316;28;20259;-75
2024/02/21 12:15:23;;;;;;;8.80;4.37;;;12.50;99.90;;;;;;5116142;28;20575;-75
2024/02/21 12:17:51;;;;;;;11.77;5.10;;;12.40;99.90;;;;;;5114224;28;20247;-73
2024/02/21 12:20:17;;;;;;;6.67;4.10;;;12.30;99.90;;;;;;5114440;28;20160;-73
2024/02/21 12:22:43;;;;;;;6.30;3.77;;;12.20;99.90;;;;;;5115134;28;20194;-74
2024/02/21 12:25:22;;;;;;;5.33;3.70;;;12.20;99.90;;;;;;5114848;28;20165;-73
2024/02/21 12:27:48;;;;;;;8.73;4.40;;;12.30;99.90;;;;;;5114639;28;20188;-74
2024/02/21 12:30:15;;;;;;;4.27;3.93;;;12.40;99.90;;;;;;5114850;28;20169;-73
2024/02/21 12:32:41;;;;;;;5.40;4.90;;;12.40;99.90;;;;;;5112484;28;20173;-74
2024/02/21 12:35:07;;;;;;;7.57;4.30;;;12.50;99.90;;;;;;5112637;28;20544;-74
2024/02/21 12:37:33;;;;;;;6.20;4.23;;;12.50;99.90;;;;;;5110248;28;20267;-73
2024/02/21 12:39:58;;;;;;;6.33;4.03;;;12.60;99.90;;;;;;5112206;28;20171;-74
2024/02/21 12:42:25;;;;;;;5.43;4.27;;;12.70;99.90;;;;;;5111743;28;20165;-73
2024/02/21 12:44:54;;;;;;;4.60;3.93;;;12.70;99.90;;;;;;5112058;28;20172;-73
2024/02/21 12:47:23;;;;;;;8.77;3.80;;;12.90;99.90;;;;;;5111949;28;20295;-72
2024/02/21 12:49:49;;;;;;;8.43;4.40;;;13.10;99.90;;;;;;5112032;28;20172;-74